createdAt,value
2024-02-06T00:00:14.864Z,9.24
2024-02-06T00:02:41.426Z,9.00
2024-02-06T00:05:09.849Z,9.24
2024-02-06T00:07:38.580Z,9.25
2024-02-06T00:10:05.202Z,9.03
2024-02-06T00:12:31.812Z,8.74
2024-02-06T00:14:58.349Z,8.75
2024-02-06T00:17:24.914Z,8.95
2024-02-06T00:19:51.660Z,8.92
2024-02-06T00:22:18.395Z,8.78
2024-02-06T00:24:44.973Z,8.69
2024-02-06T00:27:11.535Z,8.73
2024-02-06T00:29:38.075Z,8.60
2024-02-06T00:32:04.652Z,8.54
2024-02-06T00:34:31.401Z,8.52
2024-02-06T00:36:58.120Z,8.53
2024-02-06T00:39:24.693Z,8.45
2024-02-06T00:41:51.262Z,8.45
2024-02-06T00:44:17.808Z,8.36
2024-02-06T00:46:44.337Z,8.27
2024-02-06T00:49:10.997Z,8.45
2024-02-06T00:51:37.828Z,8.23
2024-02-06T00:54:04.462Z,8.44
2024-02-06T00:56:31.021Z,8.47
2024-02-06T00:58:57.924Z,8.39
2024-02-06T01:01:24.592Z,8.45
2024-02-06T01:03:51.283Z,8.51
2024-02-06T01:06:17.873Z,8.50
2024-02-06T01:08:44.462Z,8.52
2024-02-06T01:11:11.045Z,8.38
2024-02-06T01:13:37.744Z,8.46
2024-02-06T01:16:04.506Z,8.48
2024-02-06T01:18:31.214Z,8.47
2024-02-06T01:20:57.841Z,8.58
2024-02-06T01:23:24.550Z,8.50
2024-02-06T01:25:51.090Z,8.71
2024-02-06T01:28:17.699Z,8.69
2024-02-06T01:30:44.314Z,8.70
2024-02-06T01:33:10.975Z,8.63
2024-02-06T01:35:37.629Z,8.45
2024-02-06T01:38:04.170Z,8.43
2024-02-06T01:40:30.768Z,8.34
2024-02-06T01:42:57.386Z,8.50
2024-02-06T01:45:23.941Z,8.53
2024-02-06T01:47:50.505Z,8.47
2024-02-06T01:50:17.207Z,8.57
2024-02-06T01:52:43.834Z,8.62
2024-02-06T01:55:10.402Z,8.63
2024-02-06T01:57:36.965Z,8.90
2024-02-06T02:00:03.529Z,8.89
2024-02-06T02:02:30.113Z,9.09
2024-02-06T02:04:56.705Z,9.53
2024-02-06T02:07:23.449Z,9.07
2024-02-06T02:09:50.100Z,8.75
2024-02-06T02:12:16.654Z,8.77
2024-02-06T02:14:43.221Z,8.74
2024-02-06T02:17:09.761Z,8.60
2024-02-06T02:19:36.415Z,8.69
2024-02-06T02:22:03.150Z,8.70
2024-02-06T02:24:29.772Z,8.48
2024-02-06T02:26:56.340Z,8.46
2024-02-06T02:29:22.902Z,8.45
2024-02-06T02:31:49.462Z,8.64
2024-02-06T02:34:16.204Z,8.36
2024-02-06T02:36:42.901Z,8.47
2024-02-06T02:39:09.455Z,8.27
2024-02-06T02:41:35.998Z,8.30
2024-02-06T02:44:02.538Z,8.24
2024-02-06T02:46:29.158Z,8.52
2024-02-06T02:48:55.838Z,8.43
2024-02-06T02:51:22.432Z,8.33
2024-02-06T02:53:49.066Z,8.35
2024-02-06T02:56:15.783Z,8.26
2024-02-06T02:58:42.491Z,8.03
2024-02-06T03:01:09.139Z,7.99
2024-02-06T03:03:35.778Z,8.07
2024-02-06T03:06:02.420Z,8.24
2024-02-06T03:08:28.978Z,8.25
2024-02-06T03:10:55.535Z,8.23
2024-02-06T03:13:22.097Z,8.50
2024-02-06T03:15:48.666Z,8.58
2024-02-06T03:18:15.306Z,9.01
2024-02-06T03:20:41.914Z,9.12
2024-02-06T03:23:08.493Z,8.92
2024-02-06T03:25:35.063Z,8.46
2024-02-06T03:28:01.643Z,8.54
2024-02-06T03:30:28.216Z,8.24
2024-02-06T03:32:54.798Z,8.07
2024-02-06T03:35:21.527Z,8.40
2024-02-06T03:37:48.152Z,8.35
2024-02-06T03:40:14.728Z,8.11
2024-02-06T03:42:41.333Z,7.87
2024-02-06T03:45:07.912Z,7.99
2024-02-06T03:47:34.491Z,7.99
2024-02-06T03:50:01.187Z,7.98
2024-02-06T03:52:27.777Z,8.02
2024-02-06T03:54:54.403Z,8.43
2024-02-06T03:57:21.770Z,8.74
2024-02-06T03:59:48.458Z,8.15
2024-02-06T04:02:15.278Z,7.86
2024-02-06T04:04:42.082Z,7.88
2024-02-06T04:07:08.950Z,8.40
2024-02-06T04:09:35.561Z,8.18
2024-02-06T04:12:02.168Z,7.87
2024-02-06T04:14:28.773Z,7.72
2024-02-06T04:16:55.318Z,7.43
2024-02-06T04:19:22.001Z,7.31
2024-02-06T04:21:48.602Z,7.81
2024-02-06T04:24:15.154Z,7.86
2024-02-06T04:26:41.704Z,8.36
2024-02-06T04:29:08.249Z,8.52
2024-02-06T04:31:34.976Z,8.53
2024-02-06T04:34:01.749Z,7.76
2024-02-06T04:36:28.431Z,8.27
2024-02-06T04:38:54.999Z,7.81
2024-02-06T04:41:21.553Z,7.99
2024-02-06T04:43:48.087Z,8.02
2024-02-06T04:46:14.718Z,7.90
2024-02-06T04:48:41.311Z,7.98
2024-02-06T04:51:07.902Z,7.28
2024-02-06T04:53:35.331Z,7.90
2024-02-06T04:56:01.885Z,8.18
2024-02-06T04:58:28.566Z,7.63
2024-02-06T05:00:55.233Z,7.28
2024-02-06T05:03:21.832Z,7.80
2024-02-06T05:05:48.433Z,7.71
2024-02-06T05:08:15.100Z,7.56
2024-02-06T05:10:41.777Z,7.89
2024-02-06T05:13:08.558Z,7.90
2024-02-06T05:15:35.236Z,8.05
2024-02-06T05:18:01.989Z,7.88
2024-02-06T05:20:28.678Z,7.37
2024-02-06T05:22:55.269Z,7.36
2024-02-06T05:25:24.539Z,7.74
2024-02-06T05:27:51.681Z,7.68
2024-02-06T05:30:18.238Z,7.83
2024-02-06T05:32:44.811Z,7.68
2024-02-06T05:35:11.526Z,7.31
2024-02-06T05:37:38.385Z,6.81
2024-02-06T05:40:05.079Z,6.80
2024-02-06T05:42:31.649Z,6.46
2024-02-06T05:44:58.193Z,6.29
2024-02-06T05:47:24.861Z,6.37
2024-02-06T05:49:51.661Z,6.63
2024-02-06T05:52:18.341Z,6.74
2024-02-06T05:54:44.924Z,7.11
2024-02-06T05:57:11.480Z,7.00
2024-02-06T05:59:38.046Z,6.53
2024-02-06T06:02:04.889Z,6.53
2024-02-06T06:04:31.833Z,6.90
2024-02-06T06:06:58.687Z,7.02
2024-02-06T06:09:25.340Z,7.10
2024-02-06T06:11:51.923Z,6.71
2024-02-06T06:14:18.484Z,6.44
2024-02-06T06:16:45.071Z,6.70
2024-02-06T06:19:11.793Z,6.61
2024-02-06T06:21:40.675Z,7.05
2024-02-06T06:24:08.078Z,7.16
2024-02-06T06:26:34.647Z,7.48
2024-02-06T06:29:01.205Z,7.45
2024-02-06T06:31:27.790Z,7.44
2024-02-06T06:33:54.529Z,7.49
2024-02-06T06:36:21.103Z,7.22
2024-02-06T06:38:47.661Z,7.47
2024-02-06T06:41:14.224Z,7.43
2024-02-06T06:43:40.911Z,7.49
2024-02-06T06:46:07.529Z,7.51
2024-02-06T06:48:34.273Z,7.53
2024-02-06T06:51:00.925Z,7.68
2024-02-06T06:53:27.470Z,7.65
2024-02-06T06:55:54.032Z,7.54
2024-02-06T06:58:20.677Z,7.53
2024-02-06T07:00:47.270Z,7.59
2024-02-06T07:03:13.903Z,7.60
2024-02-06T07:05:40.575Z,7.67
2024-02-06T07:08:07.201Z,7.82
2024-02-06T07:10:33.771Z,7.16
2024-02-06T07:13:00.419Z,7.01
2024-02-06T07:15:27.022Z,6.75
2024-02-06T07:17:53.625Z,6.67
2024-02-06T07:20:20.387Z,6.64
2024-02-06T07:22:47.198Z,6.72
2024-02-06T07:25:13.866Z,6.76
2024-02-06T07:27:40.484Z,6.87
2024-02-06T07:30:07.056Z,6.98
2024-02-06T07:32:33.646Z,7.25
2024-02-06T07:35:00.325Z,7.20
2024-02-06T07:37:27.170Z,7.79
2024-02-06T07:39:53.836Z,8.37
2024-02-06T07:42:20.379Z,8.92
2024-02-06T07:44:46.942Z,8.91
2024-02-06T07:47:13.838Z,8.16
2024-02-06T07:49:40.504Z,8.18
2024-02-06T07:52:07.207Z,9.08
2024-02-06T07:54:33.777Z,8.58
2024-02-06T07:57:00.327Z,8.84
2024-02-06T07:59:26.911Z,8.46
2024-02-06T08:01:53.567Z,9.16
2024-02-06T08:04:20.205Z,9.96
2024-02-06T08:06:47.005Z,10.10
2024-02-06T08:09:13.663Z,9.66
2024-02-06T08:11:40.292Z,10.04
2024-02-06T08:14:06.838Z,9.76
2024-02-06T08:16:33.506Z,9.32
2024-02-06T08:19:00.270Z,9.74
2024-02-06T08:21:26.921Z,9.44
2024-02-06T08:23:53.467Z,10.13
2024-02-06T08:26:20.133Z,10.01
2024-02-06T08:28:46.788Z,10.95
2024-02-06T08:31:13.492Z,11.60
2024-02-06T08:33:40.080Z,11.94
2024-02-06T08:36:06.794Z,12.21
2024-02-06T08:38:33.533Z,12.88
2024-02-06T08:41:00.264Z,13.33
2024-02-06T08:43:28.692Z,12.25
2024-02-06T08:45:57.250Z,11.84
2024-02-06T08:48:24.094Z,13.50
2024-02-06T08:50:51.276Z,13.44
2024-02-06T08:53:17.902Z,14.21
2024-02-06T08:55:44.547Z,15.16
2024-02-06T08:58:11.227Z,15.46
2024-02-06T09:00:37.828Z,15.75
2024-02-06T09:03:04.416Z,15.97
2024-02-06T09:05:31.233Z,14.74
2024-02-06T09:07:57.963Z,15.62
2024-02-06T09:10:25.309Z,16.61
2024-02-06T09:12:52.027Z,16.52
2024-02-06T09:15:18.609Z,17.36
2024-02-06T09:17:45.250Z,17.22
2024-02-06T09:20:11.892Z,17.71
2024-02-06T09:22:38.685Z,18.16
2024-02-06T09:25:05.407Z,19.20
2024-02-06T09:27:31.987Z,19.31
2024-02-06T09:29:58.557Z,19.47
2024-02-06T09:32:25.127Z,19.41
2024-02-06T09:34:51.804Z,19.55
2024-02-06T09:37:18.422Z,19.14
2024-02-06T09:39:45.005Z,19.05
2024-02-06T09:42:11.545Z,19.25
2024-02-06T09:44:38.096Z,18.18
2024-02-06T09:47:05.197Z,18.38
2024-02-06T09:49:32.001Z,18.42
2024-02-06T09:51:58.695Z,18.58
2024-02-06T09:54:25.324Z,18.19
2024-02-06T09:56:51.887Z,18.29
2024-02-06T09:59:18.438Z,17.88
2024-02-06T10:01:45.072Z,17.91
2024-02-06T10:04:11.888Z,17.91
2024-02-06T10:06:38.738Z,17.41
2024-02-06T10:09:05.477Z,17.43
2024-02-06T10:11:32.082Z,16.95
2024-02-06T10:13:58.652Z,16.67
2024-02-06T10:16:25.314Z,16.58
2024-02-06T10:18:52.025Z,15.96
2024-02-06T10:21:18.657Z,14.43
2024-02-06T10:23:45.215Z,15.09
2024-02-06T10:26:11.771Z,15.40
2024-02-06T10:28:38.387Z,15.27
2024-02-06T10:31:05.054Z,14.54
2024-02-06T10:33:31.876Z,14.95
2024-02-06T10:35:58.598Z,14.37
2024-02-06T10:38:25.217Z,13.97
2024-02-06T10:40:52.040Z,14.54
2024-02-06T10:45:48.360Z,14.96
2024-02-06T10:48:14.980Z,15.24
2024-02-06T10:50:42.271Z,15.28
2024-02-06T10:53:09.467Z,14.95
2024-02-06T10:55:36.154Z,15.18
2024-02-06T10:58:02.816Z,15.51
2024-02-06T11:00:29.449Z,15.16
2024-02-06T11:02:56.026Z,14.41
2024-02-06T11:05:22.776Z,14.89
2024-02-06T11:07:49.398Z,15.31
2024-02-06T11:10:16.035Z,15.20
2024-02-06T11:12:42.622Z,14.88
2024-02-06T11:15:09.200Z,15.02
2024-02-06T11:17:35.800Z,14.67
2024-02-06T11:20:02.385Z,14.73
2024-02-06T11:22:28.981Z,15.01
2024-02-06T11:24:55.581Z,15.10
2024-02-06T11:27:22.160Z,14.60
2024-02-06T11:29:48.714Z,14.68
2024-02-06T11:32:15.273Z,14.15
2024-02-06T11:34:41.979Z,14.14
2024-02-06T11:37:08.704Z,14.15
2024-02-06T11:39:35.304Z,14.18
2024-02-06T11:42:01.903Z,14.42
2024-02-06T11:44:28.467Z,14.06
2024-02-06T11:46:55.045Z,14.09
2024-02-06T11:49:21.680Z,14.75
2024-02-06T11:51:49.042Z,14.90
2024-02-06T11:54:16.055Z,15.13
2024-02-06T11:56:42.721Z,14.72
2024-02-06T11:59:09.654Z,14.71
2024-02-06T12:01:37.628Z,14.52
2024-02-06T12:04:05.717Z,14.72
2024-02-06T12:06:32.382Z,15.08
2024-02-06T12:08:59.025Z,15.06
2024-02-06T12:11:25.704Z,14.85
2024-02-06T12:13:52.800Z,14.56
2024-02-06T12:16:19.953Z,14.92
2024-02-06T12:18:47.294Z,14.85
2024-02-06T12:21:14.284Z,14.81
2024-02-06T12:23:40.879Z,15.08
2024-02-06T12:26:07.455Z,14.91
2024-02-06T12:28:34.095Z,15.18
2024-02-06T12:31:00.767Z,14.87
2024-02-06T12:33:27.469Z,14.94
2024-02-06T12:35:54.122Z,14.95
2024-02-06T12:38:20.710Z,15.25
2024-02-06T12:40:47.347Z,15.37
2024-02-06T12:43:15.151Z,15.51
2024-02-06T12:45:41.909Z,15.07
2024-02-06T12:48:08.556Z,15.53
2024-02-06T12:50:35.460Z,15.55
2024-02-06T12:53:02.127Z,15.55
2024-02-06T12:55:29.870Z,15.15
2024-02-06T12:57:57.516Z,15.16
2024-02-06T13:00:24.124Z,15.68
2024-02-06T13:02:50.747Z,15.74
2024-02-06T13:05:17.886Z,15.60
2024-02-06T13:07:44.676Z,15.55
2024-02-06T13:10:11.563Z,15.77
2024-02-06T13:12:38.259Z,15.73
2024-02-06T13:15:04.894Z,15.84
2024-02-06T13:17:31.706Z,16.22
2024-02-06T13:19:58.438Z,15.86
2024-02-06T13:22:25.257Z,16.03
2024-02-06T13:24:51.899Z,15.81
2024-02-06T13:27:18.580Z,16.24
2024-02-06T13:29:45.144Z,15.57
2024-02-06T13:32:11.792Z,15.65
2024-02-06T13:34:38.567Z,15.52
2024-02-06T13:37:05.206Z,15.60
2024-02-06T13:39:32.056Z,15.98
2024-02-06T13:41:58.637Z,15.98
2024-02-06T13:44:25.192Z,15.77
2024-02-06T13:46:51.784Z,16.12
2024-02-06T13:49:18.483Z,16.12
2024-02-06T13:51:45.094Z,16.29
2024-02-06T13:54:11.680Z,16.11
2024-02-06T13:56:39.115Z,16.47
2024-02-06T13:59:05.819Z,16.90
2024-02-06T14:01:32.402Z,17.94
2024-02-06T14:03:59.127Z,18.58
2024-02-06T14:06:25.848Z,18.96
2024-02-06T14:08:52.418Z,18.83
2024-02-06T14:11:18.998Z,18.98
2024-02-06T14:13:45.665Z,18.97
2024-02-06T14:16:12.284Z,19.26
2024-02-06T14:18:38.880Z,19.08
2024-02-06T14:21:05.442Z,19.45
2024-02-06T14:23:31.997Z,18.86
2024-02-06T14:25:58.616Z,18.33
2024-02-06T14:28:25.320Z,17.87
2024-02-06T14:30:51.916Z,17.40
2024-02-06T14:33:21.600Z,17.18
2024-02-06T14:35:48.307Z,16.89
2024-02-06T14:38:14.945Z,16.35
2024-02-06T14:40:41.543Z,16.24
2024-02-06T14:43:08.193Z,15.46
2024-02-06T14:45:34.761Z,14.87
2024-02-06T14:48:01.371Z,14.45
2024-02-06T14:50:28.077Z,14.01
2024-02-06T14:52:54.737Z,13.96
2024-02-06T14:55:21.400Z,14.17
2024-02-06T14:57:48.015Z,13.55
2024-02-06T15:00:14.571Z,13.61
2024-02-06T15:02:41.139Z,13.44
2024-02-06T15:05:08.005Z,13.22
2024-02-06T15:07:34.773Z,13.33
2024-02-06T15:10:01.629Z,13.61
2024-02-06T15:12:28.272Z,13.67
2024-02-06T15:14:54.863Z,13.38
2024-02-06T15:17:21.482Z,13.42
2024-02-06T15:19:48.325Z,13.70
2024-02-06T15:22:15.102Z,13.63
2024-02-06T15:24:41.804Z,13.70
2024-02-06T15:27:08.369Z,13.70
2024-02-06T15:29:34.992Z,13.64
2024-02-06T15:32:02.010Z,13.42
2024-02-06T15:34:28.659Z,13.29
2024-02-06T15:36:55.282Z,13.32
2024-02-06T15:39:21.845Z,12.78
2024-02-06T15:41:48.398Z,12.78
2024-02-06T15:44:16.143Z,12.62
2024-02-06T15:46:42.994Z,12.69
2024-02-06T15:49:09.661Z,12.73
2024-02-06T15:51:36.345Z,12.67
2024-02-06T15:54:02.941Z,12.67
2024-02-06T15:56:29.523Z,12.78
2024-02-06T15:58:56.172Z,12.60
2024-02-06T16:01:22.866Z,12.65
2024-02-06T16:03:49.530Z,12.60
2024-02-06T16:06:16.203Z,12.58
2024-02-06T16:08:42.800Z,12.45
2024-02-06T16:11:09.348Z,12.59
2024-02-06T16:13:35.942Z,12.55
2024-02-06T16:16:02.609Z,12.13
2024-02-06T16:18:29.313Z,12.08
2024-02-06T16:20:55.956Z,11.59
2024-02-06T16:23:22.550Z,11.84
2024-02-06T16:25:49.165Z,11.96
2024-02-06T16:28:15.790Z,12.11
2024-02-06T16:30:42.398Z,11.81
2024-02-06T16:33:09.031Z,11.57
2024-02-06T16:35:35.804Z,11.52
2024-02-06T16:38:02.411Z,11.19
2024-02-06T16:40:29.026Z,11.54
2024-02-06T16:42:55.625Z,11.34
2024-02-06T16:45:22.196Z,11.51
2024-02-06T16:47:48.816Z,11.53
2024-02-06T16:50:15.551Z,11.31
2024-02-06T16:52:42.336Z,11.15
2024-02-06T16:55:08.966Z,11.38
2024-02-06T16:57:36.938Z,11.41
2024-02-06T17:00:03.493Z,11.28
2024-02-06T17:02:30.139Z,11.41
2024-02-06T17:04:56.866Z,11.26
2024-02-06T17:07:23.549Z,11.11
2024-02-06T17:09:50.242Z,11.21
2024-02-06T17:12:16.805Z,11.10
2024-02-06T17:14:43.501Z,10.73
2024-02-06T17:17:10.057Z,10.57
2024-02-06T17:19:36.767Z,10.87
2024-02-06T17:22:03.434Z,10.58
2024-02-06T17:24:30.003Z,10.56
2024-02-06T17:26:56.568Z,10.85
2024-02-06T17:29:23.117Z,10.70
2024-02-06T17:31:49.683Z,10.79
2024-02-06T17:34:16.517Z,10.85
2024-02-06T17:36:43.226Z,10.26
2024-02-06T17:39:09.804Z,10.13
2024-02-06T17:41:36.370Z,10.00
2024-02-06T17:44:02.930Z,9.87
2024-02-06T17:46:29.788Z,9.75
2024-02-06T17:48:56.399Z,9.83
2024-02-06T17:51:23.001Z,9.60
2024-02-06T17:53:49.652Z,9.36
2024-02-06T17:56:16.311Z,9.64
2024-02-06T17:58:45.880Z,9.16
2024-02-06T18:01:14.699Z,9.36
2024-02-06T18:03:41.395Z,9.54
2024-02-06T18:06:08.000Z,9.47
2024-02-06T18:08:34.855Z,9.29
2024-02-06T18:11:01.606Z,9.00
2024-02-06T18:13:28.239Z,9.20
2024-02-06T18:15:54.820Z,8.99
2024-02-06T18:18:21.403Z,9.14
2024-02-06T18:20:47.963Z,9.07
2024-02-06T18:23:14.545Z,8.73
2024-02-06T18:25:41.147Z,8.89
2024-02-06T18:28:07.809Z,9.06
2024-02-06T18:30:34.475Z,9.07
2024-02-06T18:33:01.069Z,9.18
2024-02-06T18:35:27.697Z,9.26
2024-02-06T18:37:54.348Z,9.29
2024-02-06T18:40:20.965Z,9.18
2024-02-06T18:42:47.527Z,9.37
2024-02-06T18:45:14.183Z,9.15
2024-02-06T18:47:40.749Z,9.22
2024-02-06T18:50:07.438Z,9.17
2024-02-06T18:52:34.142Z,9.21
2024-02-06T18:55:00.740Z,9.18
2024-02-06T18:57:27.321Z,9.18
2024-02-06T18:59:53.979Z,8.92
2024-02-06T19:02:20.544Z,8.70
2024-02-06T19:04:47.249Z,8.72
2024-02-06T19:07:14.108Z,8.74
2024-02-06T19:09:40.785Z,8.87
2024-02-06T19:12:07.407Z,8.85
2024-02-06T19:14:33.959Z,8.69
2024-02-06T19:17:00.572Z,8.57
2024-02-06T19:19:27.360Z,8.56
2024-02-06T19:21:53.959Z,8.71
2024-02-06T19:24:20.518Z,8.55
2024-02-06T19:26:47.152Z,8.51
2024-02-06T19:29:13.817Z,8.41
2024-02-06T19:31:40.514Z,8.51
2024-02-06T19:34:07.208Z,8.47
2024-02-06T19:36:33.878Z,8.59
2024-02-06T19:39:00.463Z,8.35
2024-02-06T19:41:27.023Z,8.34
2024-02-06T19:43:53.747Z,8.10
2024-02-06T19:46:20.489Z,7.91
2024-02-06T19:48:47.103Z,8.06
2024-02-06T19:51:13.940Z,8.31
2024-02-06T19:53:40.592Z,7.90
2024-02-06T19:56:07.150Z,7.67
2024-02-06T19:58:33.705Z,7.95
2024-02-06T20:01:00.302Z,7.69
2024-02-06T20:03:26.882Z,7.88
2024-02-06T20:05:53.533Z,7.58
2024-02-06T20:08:20.294Z,7.62
2024-02-06T20:10:47.030Z,7.77
2024-02-06T20:13:13.637Z,7.52
2024-02-06T20:15:42.670Z,7.21
2024-02-06T20:18:10.433Z,7.46
2024-02-06T20:20:37.005Z,7.45
2024-02-06T20:23:03.592Z,7.40
2024-02-06T20:25:30.202Z,7.62
2024-02-06T20:27:56.772Z,7.33
2024-02-06T20:30:23.402Z,7.35
2024-02-06T20:32:50.008Z,7.38
2024-02-06T20:35:16.652Z,7.48
2024-02-06T20:37:43.351Z,7.29
2024-02-06T20:40:10.139Z,7.34
2024-02-06T20:42:36.769Z,7.43
2024-02-06T20:45:03.304Z,7.16
2024-02-06T20:47:29.852Z,7.28
2024-02-06T20:49:56.546Z,7.39
2024-02-06T20:52:23.241Z,7.09
2024-02-06T20:54:49.819Z,7.11
2024-02-06T20:57:16.372Z,7.33
2024-02-06T20:59:42.949Z,7.28
2024-02-06T21:02:09.652Z,7.27
2024-02-06T21:04:36.355Z,7.35
2024-02-06T21:07:03.027Z,7.26
2024-02-06T21:09:29.610Z,7.29
2024-02-06T21:11:56.182Z,7.30
2024-02-06T21:14:22.752Z,7.30
2024-02-06T21:16:49.552Z,7.35
2024-02-06T21:19:16.385Z,7.25
2024-02-06T21:21:43.184Z,7.11
2024-02-06T21:24:09.764Z,7.05
2024-02-06T21:26:37.373Z,7.17
2024-02-06T21:29:04.024Z,6.82
2024-02-06T21:31:30.689Z,7.00
2024-02-06T21:33:57.469Z,7.05
2024-02-06T21:36:24.143Z,6.90
2024-02-06T21:38:50.716Z,6.76
2024-02-06T21:41:17.291Z,6.86
2024-02-06T21:43:43.939Z,6.73
2024-02-06T21:46:10.744Z,6.87
2024-02-06T21:48:37.504Z,6.88
2024-02-06T21:51:04.285Z,6.92
2024-02-06T21:53:30.846Z,6.86
2024-02-06T21:56:04.961Z,6.77
2024-02-06T21:58:39.119Z,6.95
2024-02-06T22:01:05.792Z,7.07
2024-02-06T22:03:32.454Z,6.67
2024-02-06T22:05:59.225Z,7.07
2024-02-06T22:08:25.956Z,6.91
2024-02-06T22:10:52.661Z,6.89
2024-02-06T22:13:19.285Z,7.01
2024-02-06T22:15:45.854Z,7.01
2024-02-06T22:18:12.505Z,7.04
2024-02-06T22:20:39.148Z,6.97
2024-02-06T22:23:05.755Z,7.15
2024-02-06T22:25:32.403Z,7.20
2024-02-06T22:27:58.993Z,7.09
2024-02-06T22:30:25.758Z,7.28
2024-02-06T22:32:52.431Z,7.21
2024-02-06T22:35:19.118Z,7.35
2024-02-06T22:37:45.756Z,7.30
2024-02-06T22:40:12.348Z,7.20
2024-02-06T22:42:38.915Z,7.15
2024-02-06T22:45:05.532Z,7.28
2024-02-06T22:47:32.095Z,7.06
2024-02-06T22:49:58.753Z,7.15
2024-02-06T22:52:25.396Z,7.10
2024-02-06T22:54:51.968Z,7.01
2024-02-06T22:57:18.514Z,7.04
2024-02-06T22:59:45.217Z,7.13
2024-02-06T23:02:11.779Z,7.09
2024-02-06T23:04:38.392Z,7.06
2024-02-06T23:07:05.084Z,7.04
2024-02-06T23:09:31.688Z,7.10
2024-02-06T23:11:58.241Z,7.09
2024-02-06T23:14:24.806Z,6.95
2024-02-06T23:16:51.532Z,6.82
2024-02-06T23:19:18.267Z,6.95
2024-02-06T23:21:44.894Z,6.94
2024-02-06T23:24:11.494Z,7.12
2024-02-06T23:26:38.083Z,6.97
2024-02-06T23:29:04.653Z,6.93
2024-02-06T23:31:31.318Z,6.94
2024-02-06T23:33:57.904Z,6.82
2024-02-06T23:36:24.457Z,6.82
2024-02-06T23:39:03.878Z,6.83
2024-02-06T23:41:37.582Z,6.66
2024-02-06T23:44:04.144Z,6.78
2024-02-06T23:46:30.695Z,6.81
2024-02-06T23:48:57.368Z,6.81
2024-02-06T23:51:24.039Z,6.57
2024-02-06T23:53:50.604Z,6.74
2024-02-06T23:56:17.188Z,6.95
2024-02-06T23:58:43.832Z,6.82
